Data for 06/20/2008

Time Sea-Level Adjusted Pressure Absolute Pressure Temperature Relative Humidity Dew Point   
(mb) (inHg) (mb) (inHg) (C) (F) (%) (C) (F)
00:05 1024 30.24 853 25.19 12.9 55.2 51 3.2 37.7
00:10 1023 30.21 853 25.19 12.9 55.2 52 3.3 38
00:15 1024 30.24 853 25.19 12.8 55 51 3 37.4
00:20 1024 30.24 853 25.19 12.9 55.3 51 3.1 37.6
00:25 1024 30.24 853 25.19 12.7 54.8 54 3.6 38.5
00:30 1024 30.24 853 25.19 12.2 53.9 55 3.3 38
00:35 1024 30.24 853 25.19 12.3 54.1 53 3.1 37.5
00:40 1024 30.24 853 25.19 12.4 54.3 53 3.1 37.7
00:45 1024 30.24 853 25.19 12.3 54.1 54 3.2 37.8
00:50 1024 30.24 853 25.19 12.1 53.7 55 3.3 37.9
00:55 1024 30.24 853 25.19 11.8 53.3 56 3.3 37.9
01:00 1024 30.24 853 25.19 11.8 53.2 56 3.3 38
01:05 1024 30.24 853 25.19 11.7 53.1 56 3.4 38.1
01:10 1024 30.24 853 25.19 11.5 52.8 57 3.4 38.1
01:15 1024 30.24 853 25.19 11.3 52.4 58 3.4 38.2
01:20 1024 30.24 853 25.19 11.1 52 59 3.5 38.4
01:25 1024 30.24 853 25.19 10.9 51.6 61 3.7 38.6
01:30 1024 30.24 853 25.19 10.6 51 62 3.7 38.7
01:35 1024 30.24 853 25.19 10.5 51 59 2.9 37.3
01:40 1024 30.24 853 25.19 11.1 51.9 56 2.7 36.9
01:45 1024 30.24 853 25.19 11.3 52.4 55 2.8 37
01:50 1024 30.24 853 25.19 11.3 52.3 56 2.9 37.2
01:55 1024 30.24 853 25.19 11.2 52.2 57 3 37.3
02:00 1024 30.24 853 25.19 11 51.8 58 3 37.4
02:05 1024 30.24 853 25.19 11.2 52.1 55 2.6 36.7
02:10 1024 30.24 853 25.19 11.2 52.1 58 3.2 37.8
02:15 1024 30.24 853 25.19 10.6 51.1 60 3.1 37.6
02:20 1024 30.24 853 25.19 10.5 51 59 2.8 37.1
02:25 1024 30.24 853 25.19 10.7 51.3 58 2.8 37
02:30 1024 30.24 853 25.19 10.9 51.7 56 2.6 36.8
02:35 1024 30.24 853 25.19 11 51.8 57 2.9 37.2
02:40 1024 30.24 853 25.19 10.7 51.3 58 2.9 37.3
02:45 1024 30.24 853 25.19 10.5 51 60 3 37.5
02:50 1024 30.24 853 25.19 10.2 50.3 61 3.1 37.5
02:55 1024 30.24 853 25.19 10.1 50.1 60 2.8 37
03:00 1024 30.24 853 25.19 10.3 50.6 59 2.6 36.8
03:05 1024 30.24 853 25.19 10.4 50.8 58 2.6 36.7
03:10 1024 30.24 853 25.19 10.5 50.9 57 2.4 36.3
03:15 1024 30.24 853 25.19 10.7 51.3 56 2.5 36.4
03:20 1024 30.24 853 25.19 10.6 51 57 2.5 36.4
03:25 1024 30.24 853 25.19 10.5 50.9 57 2.3 36.2
03:30 1024 30.24 854 25.22 10.5 51 59 3 37.3
03:35 1024 30.24 854 25.22 10.3 50.5 58 2.4 36.3
03:40 1024 30.24 854 25.22 10.2 50.4 60 2.8 37
03:45 1024 30.24 854 25.22 10 49.9 59 2.4 36.3
03:50 1024 30.24 854 25.22 10.2 50.3 59 2.6 36.6
03:55 1024 30.24 854 25.22 10.1 50.2 59 2.4 36.3
04:00 1024 30.24 854 25.22 10.5 50.8 56 2.1 35.7
04:05 1024 30.24 854 25.22 10.8 51.4 56 2.3 36.2
04:10 1024 30.24 854 25.22 10.8 51.4 56 2.3 36.2
04:15 1024 30.24 854 25.22 10.5 50.8 58 2.6 36.7
04:20 1024 30.24 854 25.22 10.2 50.4 59 2.6 36.6
04:25 1024 30.24 854 25.22 10.1 50.1 58 2.3 36.1
04:30 1024 30.24 854 25.22 10.3 50.5 58 2.5 36.5
04:35 1024 30.24 854 25.22 9.8 49.7 63 3.2 37.7
04:40 1024 30.24 854 25.22 9 48.3 66 3.1 37.6
04:45 1025 30.27 854 25.22 8.8 47.9 65 2.6 36.7
04:50 1025 30.27 854 25.22 8.9 48 65 2.8 37
04:55 1025 30.27 854 25.22 9 48.1 62 2 35.7
05:00 1025 30.27 854 25.22 9.6 49.3 60 2.3 36.2
05:05 1025 30.27 854 25.22 9.6 49.2 61 2.3 36.2
05:10 1025 30.27 854 25.22 9.5 49.1 60 2.1 35.8
05:15 1025 30.27 854 25.22 9.7 49.5 59 2.2 36
05:20 1025 30.27 854 25.22 9.5 49.1 62 2.7 36.8
05:25 1025 30.27 854 25.22 9 48.1 64 2.5 36.5
05:30 1025 30.27 854 25.22 8.6 47.5 65 2.4 36.3
05:35 1025 30.27 854 25.22 8.5 47.3 65 2.4 36.3
05:40 1025 30.27 854 25.22 8.5 47.3 66 2.4 36.4
05:45 1025 30.27 854 25.22 8.6 47.5 63 2.1 35.7
05:50 1025 30.27 854 25.22 8.9 48 63 2.3 36.1
05:55 1025 30.27 854 25.22 9.1 48.4 61 1.9 35.5
06:00 1025 30.27 854 25.22 9.4 48.9 60 2 35.5
06:05 1025 30.27 854 25.22 9.5 49.1 60 2.2 35.9
06:10 1025 30.27 854 25.22 9.5 49.2 60 2.1 35.8
06:15 1025 30.27 854 25.22 9.6 49.2 59 2.1 35.7
06:20 1025 30.27 854 25.22 9.6 49.3 59 2.2 35.9
06:25 1025 30.27 854 25.22 9.7 49.4 59 2.1 35.8
06:30 1025 30.27 854 25.22 9.8 49.7 59 2.2 35.9
06:35 1025 30.27 854 25.22 10 50.1 58 2.2 35.9
06:40 1025 30.27 854 25.22 10.3 50.6 57 2.1 35.8
06:45 1025 30.27 854 25.22 10.3 50.5 58 2.5 36.4
06:50 1025 30.27 854 25.22 10.4 50.8 55 1.8 35.3
06:55 1025 30.27 854 25.22 10.7 51.3 55 2 35.7
07:00 1025 30.27 854 25.22 10.8 51.5 56 2.5 36.5
07:05 1025 30.27 854 25.22 10.8 51.4 58 2.8 37
07:10 1025 30.27 854 25.22 10.9 51.5 57 2.8 37
07:15 1025 30.27 855 25.25 11.1 52.1 56 2.6 36.7
07:20 1025 30.27 855 25.25 11.5 52.7 55 2.9 37.2
07:25 1025 30.27 855 25.25 11.8 53.2 53 2.5 36.5
07:30 1025 30.27 855 25.25 12.2 53.9 52 2.7 36.8
07:35 1025 30.27 855 25.25 12.5 54.5 51 2.6 36.7
07:40 1025 30.27 855 25.25 13.1 55.6 48 2.4 36.4
07:45 1025 30.27 855 25.25 13 55.4 49 2.7 36.9
07:50 1025 30.27 855 25.25 13.7 56.7 48 3.1 37.5
07:55 1026 30.3 855 25.25 14.1 57.4 47 3 37.5
08:00 1026 30.3 855 25.25 14.2 57.5 47 3.2 37.8
08:05 1025 30.27 855 25.25 14.6 58.3 47 3.4 38.2
08:10 1025 30.27 855 25.25 15.1 59.2 47 4 39.2
08:15 1025 30.27 855 25.25 15.2 59.4 46 3.9 39
08:20 1026 30.3 855 25.25 15.4 59.6 44 3.4 38.1
08:25 1026 30.3 855 25.25 15.5 59.8 44 3.5 38.3
08:30 1026 30.3 855 25.25 15.9 60.5 42 3 37.4
08:35 1026 30.3 855 25.25 16.6 61.9 42 3.7 38.7
08:40 1026 30.3 855 25.25 16.6 61.9 41 3.5 38.4
08:45 1026 30.3 855 25.25 17.1 62.8 38 2.7 36.8
08:50 1026 30.3 855 25.25 17.6 63.7 38 3.1 37.6
08:55 1026 30.3 855 25.25 17.9 64.3 38 3.4 38.2
09:00 1026 30.3 855 25.25 18.1 64.7 34 2 35.6
09:05 1026 30.3 855 25.25 18.3 65 34 2.2 36
09:10 1026 30.3 855 25.25 17.7 63.9 35 2.3 36.1
09:15 1026 30.3 855 25.25 18.5 65.3 32 1.7 35.1
09:20 1026 30.3 855 25.25 18.9 66 33 2.4 36.3
09:25 1026 30.3 855 25.25 19.2 66.5 32 2 35.7
09:30 1026 30.3 855 25.25 19.7 67.4 30 1.8 35.2
09:35 1026 30.3 855 25.25 20 67.9 32 2.9 37.3
09:40 1026 30.3 855 25.25 19.7 67.5 32 2.8 37.1
09:45 1026 30.3 855 25.25 19.7 67.5 33 3.1 37.5
09:50 1026 30.3 855 25.25 19.7 67.4 32 2.8 37.1
09:55 1026 30.3 855 25.25 19.8 67.7 33 3.4 38.1
10:00 1026 30.3 855 25.25 19.6 67.2 33 3.1 37.5
10:05 1026 30.3 855 25.25 18.9 66.1 33 2.5 36.5
10:10 1026 30.3 855 25.25 19.8 67.7 32 3 37.3
10:15 1026 30.3 855 25.25 19.9 67.9 31 2.6 36.7
10:20 1026 30.3 855 25.25 20 68.1 33 3.4 38.2
10:25 1026 30.3 855 25.25 20.5 68.8 31 3 37.4
10:30 1026 30.3 855 25.25 19.6 67.3 33 3.2 37.8
10:35 1026 30.3 855 25.25 20.4 68.6 32 3.1 37.5
10:40 1026 30.3 855 25.25 21.2 70.1 30 3.1 37.6
10:45 1026 30.3 855 25.25 21.3 70.3 31 3.7 38.7
10:50 1026 30.3 855 25.25 21.4 70.6 29 2.8 37
10:55 1026 30.3 855 25.25 20.9 69.6 33 4 39.3
11:00 1026 30.3 855 25.25 20.7 69.3 32 3.7 38.7
11:05 1026 30.3 855 25.25 21.1 69.9 31 3.7 38.6
11:10 1025 30.27 855 25.25 21.2 70.1 28 2.2 36
11:15 1025 30.27 855 25.25 21.7 71.1 29 3.1 37.6
11:20 1025 30.27 855 25.25 22.1 71.7 29 3.6 38.5
11:25 1025 30.27 855 25.25 22.1 71.8 26 1.7 35.1
11:30 1025 30.27 855 25.25 22 71.6 24 0.5 33
11:35 1025 30.27 855 25.25 20.8 69.4 25 0.1 32.1
11:40 1025 30.27 855 25.25 21.2 70.2 25 0.4 32.8
11:45 1025 30.27 855 25.25 21.8 71.3 25 1.3 34.3
11:50 1025 30.27 855 25.25 22.5 72.6 24 1.2 34.2
11:55 1025 30.27 855 25.25 23 73.3 23 0.7 33.2
12:00 1025 30.27 855 25.25 23.4 74.1 23 1.5 34.6
12:05 1025 30.27 855 25.25 23.4 74.1 22 0.6 33
12:10 1025 30.27 854 25.22 22.2 71.9 24 0.7 33.3
12:15 1025 30.27 854 25.22 22.1 71.8 24 0.9 33.7
12:20 1025 30.27 854 25.22 22.6 72.7 24 1.2 34.2
12:25 1025 30.27 855 25.25 22.3 72.1 23 0.6 33.1
12:30 1025 30.27 854 25.22 23.1 73.6 24 1.5 34.7
12:35 1025 30.27 854 25.22 22.4 72.3 24 1.2 34.2
12:40 1025 30.27 854 25.22 23.3 74 23 1 33.8
12:45 1025 30.27 854 25.22 23.6 74.4 23 1.4 34.4
12:50 1025 30.27 854 25.22 23.6 74.5 23 1.7 35.1
12:55 1025 30.27 854 25.22 23.7 74.6 23 1.7 35.1
13:00 1025 30.27 854 25.22 24.4 76 22 1.8 35.2
13:05 1025 30.27 854 25.22 23.7 74.6 22 0.7 33.3
13:10 1025 30.27 854 25.22 23.3 74 23 1.1 33.9
13:15 1025 30.27 854 25.22 22.8 73 23 1 33.9
13:20 1025 30.27 854 25.22 23.1 73.5 22 0.3 32.5
13:25 1025 30.27 854 25.22 23.9 74.9 18 -1.5 29.3
13:30 1025 30.27 854 25.22 23.9 75.1 21 0.5 33
13:35 1025 30.27 854 25.22 22.4 72.3 23 0.2 32.4
13:40 1025 30.27 854 25.22 22.6 72.7 22 0.1 32.1
13:45 1025 30.27 855 25.25 23.3 73.9 21 0.2 32.4
13:50 1025 30.27 855 25.25 22.3 72.1 21 -0.6 30.9
13:55 1025 30.27 854 25.22 22.4 72.3 22 0.1 32.1
14:00 1025 30.27 854 25.22 22.6 72.7 23 0.5 33
14:05 1025 30.27 855 25.25 23.7 74.7 21 0.5 33
14:10 1025 30.27 854 25.22 24.3 75.7 20 0.4 32.7
14:15 1025 30.27 854 25.22 23.6 74.5 23 1.2 34.2
14:20 1025 30.27 854 25.22 23.1 73.5 21 0.1 32.2
14:25 1025 30.27 854 25.22 23.2 73.8 23 1.1 33.9
14:30 1025 30.27 854 25.22 23.9 74.9 21 0.2 32.3
14:35 1025 30.27 854 25.22 24.6 76.2 20 0.2 32.3
14:40 1025 30.27 854 25.22 24.2 75.6 21 0.8 33.4
14:45 1025 30.27 854 25.22 23.8 74.8 22 0.9 33.6
14:50 1025 30.27 854 25.22 23.5 74.2 22 0.9 33.6
14:55 1025 30.27 854 25.22 23.8 74.9 22 1 33.8
15:00 1025 30.27 854 25.22 23.5 74.3 23 1.3 34.4
15:05 1025 30.27 854 25.22 23.3 73.9 22 0.8 33.4
15:10 1025 30.27 854 25.22 22.9 73.2 23 1.1 33.9
15:15 1025 30.27 854 25.22 22.7 72.8 24 1.3 34.3
15:20 1025 30.27 854 25.22 22.9 73.3 23 0.9 33.7
15:25 1025 30.27 854 25.22 24 75.1 21 0.6 33
15:30 1025 30.27 854 25.22 24.1 75.5 21 0.6 33.1
15:35 1025 30.27 854 25.22 24 75.3 21 0.6 33.2
15:40 1025 30.27 854 25.22 23.2 73.8 22 0.6 33
15:45 1025 30.27 854 25.22 23.1 73.6 23 0.9 33.5
15:50 1025 30.27 854 25.22 22.8 73 21 -0.2 31.6
15:55 1025 30.27 854 25.22 22.7 72.9 22 0.3 32.5
16:00 1025 30.27 854 25.22 23.4 74.2 21 0.1 32.2
16:05 1025 30.27 854 25.22 23.7 74.6 21 0.6 33
16:10 1025 30.27 854 25.22 24.2 75.5 21 0.7 33.3
16:15 1025 30.27 854 25.22 23.8 74.8 21 0.7 33.2
16:20 1025 30.27 854 25.22 24.1 75.4 21 0.5 32.9
16:25 1025 30.27 854 25.22 23.8 74.8 21 0.3 32.6
16:30 1025 30.27 854 25.22 24.1 75.3 20 0.2 32.3
16:35 1025 30.27 854 25.22 24.1 75.3 20 0 32
16:40 1025 30.27 854 25.22 24.1 75.3 22 1.2 34.1
16:45 1024 30.24 854 25.22 24.2 75.5 20 0.1 32.1
16:50 1024 30.24 854 25.22 25 77 18 -0.8 30.6
16:55 1024 30.24 854 25.22 25.4 77.7 18 -0.1 31.9
17:00 1024 30.24 853 25.19 25.8 78.5 17 -0.9 30.3
17:05 1024 30.24 853 25.19 25.5 78 18 -0.5 31.1
17:10 1024 30.24 853 25.19 25.6 78.2 15 -2.3 27.9
17:15 1024 30.24 853 25.19 25.4 77.7 17 -1.3 29.6
17:20 1024 30.24 853 25.19 24.9 76.8 16 -2.4 27.7
17:25 1024 30.24 853 25.19 24.7 76.4 15 -3.3 26.1
17:30 1024 30.24 853 25.19 24.7 76.5 15 -3.4 25.9
17:35 1024 30.24 853 25.19 24.6 76.4 15 -3.6 25.6
17:40 1024 30.24 853 25.19 24.4 75.8 15 -4 24.8
17:45 1024 30.24 853 25.19 24.6 76.2 14 -4.2 24.4
17:50 1024 30.24 853 25.19 25 77.1 16 -2.4 27.7
17:55 1024 30.24 853 25.19 24.4 76 17 -2.3 27.8
18:00 1024 30.24 853 25.19 24.9 76.8 15 -3.2 26.3
18:05 1024 30.24 853 25.19 24.6 76.3 16 -3 26.6
18:10 1024 30.24 853 25.19 24.7 76.5 15 -3.1 26.4
18:15 1024 30.24 853 25.19 24.7 76.5 15 -3.4 25.9
18:20 1024 30.24 853 25.19 24.6 76.3 15 -3.4 25.8
18:25 1024 30.24 853 25.19 24.4 76 15 -3.9 25
18:30 1024 30.24 853 25.19 24.3 75.7 15 -3.6 25.6
18:35 1024 30.24 853 25.19 24.7 76.5 15 -3.6 25.5
18:40 1024 30.24 853 25.19 24.6 76.3 15 -3.5 25.7
18:45 1024 30.24 853 25.19 24.6 76.2 15 -3.6 25.5
18:50 1023 30.21 853 25.19 24.6 76.3 14 -4.1 24.7
18:55 1023 30.21 853 25.19 24.7 76.4 15 -3.3 26
19:00 1023 30.21 853 25.19 24.7 76.5 15 -3.8 25.1
19:05 1023 30.21 853 25.19 24.6 76.3 15 -3.9 25
19:10 1023 30.21 853 25.19 24.6 76.4 14 -4.1 24.6
19:15 1023 30.21 853 25.19 24.8 76.6 15 -3.8 25.2
19:20 1023 30.21 853 25.19 24.7 76.5 15 -3.8 25.1
19:25 1023 30.21 853 25.19 24.5 76.2 14 -4.2 24.4
19:30 1023 30.21 853 25.19 24.6 76.3 15 -3.7 25.3
19:35 1023 30.21 853 25.19 24.2 75.6 15 -3.6 25.6
19:40 1024 30.24 853 25.19 23.9 75.1 15 -3.8 25.1
19:45 1024 30.24 853 25.19 23.7 74.6 15 -3.9 25
19:50 1024 30.24 853 25.19 23.5 74.2 17 -3.1 26.4
19:55 1024 30.24 853 25.19 23.4 74.1 18 -2.2 28
20:00 1024 30.24 853 25.19 23.2 73.8 19 -1.8 28.8
20:05 1024 30.24 853 25.19 23 73.4 19 -1.3 29.6
20:10 1024 30.24 853 25.19 22.9 73.2 21 -0.3 31.5
20:15 1024 30.24 853 25.19 22.7 72.9 24 1.5 34.7
20:20 1024 30.24 853 25.19 22.4 72.4 26 2.2 35.9
20:25 1024 30.24 853 25.19 22.2 72 24 0.7 33.2
20:30 1024 30.24 854 25.22 22.3 72.1 25 1.5 34.7
20:35 1025 30.27 854 25.22 21.8 71.2 29 3.2 37.8
20:40 1025 30.27 854 25.22 20.9 69.6 32 3.7 38.6
20:45 1025 30.27 854 25.22 20.3 68.5 32 3.3 37.9
20:50 1025 30.27 854 25.22 20.2 68.4 33 3.6 38.4
20:55 1025 30.27 854 25.22 20.2 68.3 33 3.4 38.2
21:00 1025 30.27 854 25.22 20 68.1 32 2.8 37
21:05 1025 30.27 854 25.22 20.2 68.3 30 2.3 36.2
21:10 1025 30.27 854 25.22 20.4 68.8 32 3.2 37.8
21:15 1024 30.24 854 25.22 20.3 68.5 32 3.3 37.9
21:20 1025 30.27 854 25.22 20.2 68.3 31 2.6 36.6
21:25 1025 30.27 854 25.22 20 67.9 30 2.1 35.8
21:30 1024 30.24 854 25.22 20.1 68.2 29 1.5 34.8
21:35 1024 30.24 854 25.22 20.3 68.5 29 2 35.5
21:40 1024 30.24 854 25.22 20.2 68.3 29 1.9 35.4
21:45 1024 30.24 854 25.22 20 68 30 1.9 35.5
21:50 1025 30.27 854 25.22 19.7 67.4 31 2.2 35.9
21:55 1025 30.27 854 25.22 19.4 66.8 31 2.2 35.9
22:00 1025 30.27 854 25.22 19 66.2 33 2.5 36.5
22:05 1025 30.27 854 25.22 18.8 65.8 32 1.9 35.4
22:10 1025 30.27 854 25.22 19 66.3 31 1.6 34.9
22:15 1025 30.27 854 25.22 19.2 66.6 31 1.8 35.3
22:20 1025 30.27 854 25.22 19.2 66.5 31 2 35.6
22:25 1025 30.27 854 25.22 18.8 65.9 32 2 35.7
22:30 1025 30.27 854 25.22 18.8 65.8 32 1.9 35.4
22:35 1025 30.27 854 25.22 18.8 65.9 32 2.1 35.8
22:40 1025 30.27 854 25.22 18.6 65.5 33 2.3 36.1
22:45 1025 30.27 854 25.22 18.4 65 35 2.7 36.8
22:50 1025 30.27 854 25.22 18.1 64.5 36 3 37.5
22:55 1025 30.27 854 25.22 17.8 64 39 3.6 38.5
23:00 1025 30.27 854 25.22 17.3 63.1 40 3.6 38.6
23:05 1025 30.27 854 25.22 17.2 63 38 3 37.4
23:10 1025 30.27 854 25.22 17.5 63.4 37 2.7 36.8
23:15 1025 30.27 854 25.22 17.6 63.6 38 3.1 37.6
23:20 1025 30.27 854 25.22 17.3 63.2 38 2.9 37.2
23:25 1025 30.27 854 25.22 17.3 63.1 38 2.9 37.2
23:30 1025 30.27 854 25.22 17.2 62.9 38 2.9 37.2
23:35 1025 30.27 854 25.22 17 62.7 39 3.1 37.5
23:40 1025 30.27 854 25.22 16.8 62.3 39 3 37.4
23:45 1025 30.27 854 25.22 16.8 62.3 39 2.9 37.2
23:50 1025 30.27 854 25.22 16.8 62.2 40 3.1 37.6
23:55 1025 30.27 854 25.22 16.6 61.8 40 3.2 37.7
24:00 1024 30.24 854 25.22 16.3 61.4 41 3.1 37.5